sensor_id;sensor_type;location;lat;lon;timestamp;temperature;humidity
41557;DHT22;27720;51.992;5.890;2022-12-17T00:01:27;2.60;99.90
41557;DHT22;27720;51.992;5.890;2022-12-17T00:04:11;2.60;99.90
41557;DHT22;27720;51.992;5.890;2022-12-17T00:06:55;2.60;99.90
41557;DHT22;27720;51.992;5.890;2022-12-17T00:09:40;2.60;99.90
41557;DHT22;27720;51.992;5.890;2022-12-17T00:12:24;2.70;99.90
41557;DHT22;27720;51.992;5.890;2022-12-17T00:15:08;2.60;99.90
41557;DHT22;27720;51.992;5.890;2022-12-17T00:17:57;2.70;99.90
41557;DHT22;27720;51.992;5.890;2022-12-17T00:20:51;2.70;99.90
41557;DHT22;27720;51.992;5.890;2022-12-17T00:23:35;2.70;99.90
41557;DHT22;27720;51.992;5.890;2022-12-17T00:26:19;2.60;99.90
41557;DHT22;27720;51.992;5.890;2022-12-17T00:29:05;2.70;99.90
41557;DHT22;27720;51.992;5.890;2022-12-17T00:31:49;2.70;99.90
41557;DHT22;27720;51.992;5.890;2022-12-17T00:34:33;2.70;99.90
41557;DHT22;27720;51.992;5.890;2022-12-17T00:37:17;2.70;99.90
41557;DHT22;27720;51.992;5.890;2022-12-17T00:40:02;2.70;99.90
41557;DHT22;27720;51.992;5.890;2022-12-17T00:42:46;2.70;99.90
41557;DHT22;27720;51.992;5.890;2022-12-17T00:45:31;2.70;99.90
41557;DHT22;27720;51.992;5.890;2022-12-17T00:48:16;2.60;99.90
41557;DHT22;27720;51.992;5.890;2022-12-17T00:51:01;2.60;99.90
41557;DHT22;27720;51.992;5.890;2022-12-17T00:53:45;2.60;99.90
41557;DHT22;27720;51.992;5.890;2022-12-17T00:56:29;2.50;99.90
41557;DHT22;27720;51.992;5.890;2022-12-17T00:59:13;2.50;99.90
41557;DHT22;27720;51.992;5.890;2022-12-17T01:01:58;2.50;99.90
41557;DHT22;27720;51.992;5.890;2022-12-17T01:04:44;2.50;99.90
41557;DHT22;27720;51.992;5.890;2022-12-17T01:07:28;2.60;99.90
41557;DHT22;27720;51.992;5.890;2022-12-17T01:10:13;2.60;99.90
41557;DHT22;27720;51.992;5.890;2022-12-17T01:12:57;2.60;99.90
41557;DHT22;27720;51.992;5.890;2022-12-17T01:15:42;2.70;99.90
41557;DHT22;27720;51.992;5.890;2022-12-17T01:18:26;2.70;99.90
41557;DHT22;27720;51.992;5.890;2022-12-17T01:24:57;2.70;99.90
41557;DHT22;27720;51.992;5.890;2022-12-17T01:27:42;2.60;99.90
41557;DHT22;27720;51.992;5.890;2022-12-17T01:30:27;2.60;99.90
41557;DHT22;27720;51.992;5.890;2022-12-17T01:33:11;2.60;99.90
41557;DHT22;27720;51.992;5.890;2022-12-17T01:35:57;2.60;99.90
41557;DHT22;27720;51.992;5.890;2022-12-17T01:38:42;2.60;99.90
41557;DHT22;27720;51.992;5.890;2022-12-17T01:41:27;2.60;99.90
41557;DHT22;27720;51.992;5.890;2022-12-17T01:50:24;2.50;99.90
41557;DHT22;27720;51.992;5.890;2022-12-17T01:53:09;2.50;99.90
41557;DHT22;27720;51.992;5.890;2022-12-17T01:56:09;2.50;99.90
41557;DHT22;27720;51.992;5.890;2022-12-17T01:58:53;2.50;99.90
41557;DHT22;27720;51.992;5.890;2022-12-17T02:01:38;2.50;99.90
41557;DHT22;27720;51.992;5.890;2022-12-17T02:04:23;2.50;99.90
41557;DHT22;27720;51.992;5.890;2022-12-17T02:13:28;2.50;99.90
41557;DHT22;27720;51.992;5.890;2022-12-17T02:16:25;2.50;99.90
41557;DHT22;27720;51.992;5.890;2022-12-17T02:19:35;2.50;99.90
41557;DHT22;27720;51.992;5.890;2022-12-17T02:22:51;2.50;99.90
41557;DHT22;27720;51.992;5.890;2022-12-17T02:25:53;2.50;99.90
41557;DHT22;27720;51.992;5.890;2022-12-17T02:28:42;2.50;99.90
41557;DHT22;27720;51.992;5.890;2022-12-17T02:31:28;2.40;99.90
41557;DHT22;27720;51.992;5.890;2022-12-17T02:34:13;2.40;99.90
41557;DHT22;27720;51.992;5.890;2022-12-17T02:36:57;2.50;99.90
41557;DHT22;27720;51.992;5.890;2022-12-17T02:39:42;2.40;99.90
41557;DHT22;27720;51.992;5.890;2022-12-17T02:42:29;2.40;99.90
41557;DHT22;27720;51.992;5.890;2022-12-17T02:45:15;2.40;99.90
41557;DHT22;27720;51.992;5.890;2022-12-17T02:48:00;2.40;99.90
41557;DHT22;27720;51.992;5.890;2022-12-17T02:50:45;2.40;99.90
41557;DHT22;27720;51.992;5.890;2022-12-17T02:53:32;2.50;99.90
41557;DHT22;27720;51.992;5.890;2022-12-17T02:56:16;2.50;99.90
41557;DHT22;27720;51.992;5.890;2022-12-17T02:59:00;2.50;99.90
41557;DHT22;27720;51.992;5.890;2022-12-17T03:01:45;2.50;99.90
41557;DHT22;27720;51.992;5.890;2022-12-17T03:04:30;2.50;99.90
41557;DHT22;27720;51.992;5.890;2022-12-17T03:07:14;2.50;99.90
41557;DHT22;27720;51.992;5.890;2022-12-17T03:09:58;2.50;99.90
41557;DHT22;27720;51.992;5.890;2022-12-17T03:12:43;2.40;99.90
41557;DHT22;27720;51.992;5.890;2022-12-17T03:15:27;2.40;99.90
41557;DHT22;27720;51.992;5.890;2022-12-17T03:18:11;2.30;99.90
41557;DHT22;27720;51.992;5.890;2022-12-17T03:20:56;2.40;99.90
41557;DHT22;27720;51.992;5.890;2022-12-17T03:23:40;2.40;99.90
41557;DHT22;27720;51.992;5.890;2022-12-17T03:26:24;2.40;99.90
41557;DHT22;27720;51.992;5.890;2022-12-17T03:29:08;2.40;99.90
41557;DHT22;27720;51.992;5.890;2022-12-17T03:31:53;2.40;99.90
41557;DHT22;27720;51.992;5.890;2022-12-17T03:34:37;2.40;99.90
41557;DHT22;27720;51.992;5.890;2022-12-17T03:37:24;2.40;99.90
41557;DHT22;27720;51.992;5.890;2022-12-17T03:40:09;2.50;99.90
41557;DHT22;27720;51.992;5.890;2022-12-17T03:42:53;2.50;99.90
41557;DHT22;27720;51.992;5.890;2022-12-17T03:45:37;2.50;99.90
41557;DHT22;27720;51.992;5.890;2022-12-17T03:48:21;2.50;99.90
41557;DHT22;27720;51.992;5.890;2022-12-17T03:51:06;2.40;99.90
41557;DHT22;27720;51.992;5.890;2022-12-17T03:53:50;2.40;99.90
41557;DHT22;27720;51.992;5.890;2022-12-17T03:56:34;2.40;99.90
41557;DHT22;27720;51.992;5.890;2022-12-17T03:59:18;2.30;99.90
41557;DHT22;27720;51.992;5.890;2022-12-17T04:02:03;2.30;99.90
41557;DHT22;27720;51.992;5.890;2022-12-17T04:04:47;2.30;99.90
41557;DHT22;27720;51.992;5.890;2022-12-17T04:07:31;2.30;99.90
41557;DHT22;27720;51.992;5.890;2022-12-17T04:10:16;2.30;99.90
41557;DHT22;27720;51.992;5.890;2022-12-17T04:13:00;2.30;99.90
41557;DHT22;27720;51.992;5.890;2022-12-17T04:15:44;2.40;99.90
41557;DHT22;27720;51.992;5.890;2022-12-17T04:18:28;2.30;99.90
41557;DHT22;27720;51.992;5.890;2022-12-17T04:21:12;2.30;99.90
41557;DHT22;27720;51.992;5.890;2022-12-17T04:23:57;2.30;99.90
41557;DHT22;27720;51.992;5.890;2022-12-17T04:26:41;2.30;99.90
41557;DHT22;27720;51.992;5.890;2022-12-17T04:29:27;2.30;99.90
41557;DHT22;27720;51.992;5.890;2022-12-17T04:32:13;2.30;99.90
41557;DHT22;27720;51.992;5.890;2022-12-17T04:34:57;2.20;99.90
41557;DHT22;27720;51.992;5.890;2022-12-17T04:37:41;2.20;99.90
41557;DHT22;27720;51.992;5.890;2022-12-17T04:40:25;2.20;99.90
41557;DHT22;27720;51.992;5.890;2022-12-17T04:43:26;2.20;99.90
41557;DHT22;27720;51.992;5.890;2022-12-17T04:46:10;2.10;99.90
41557;DHT22;27720;51.992;5.890;2022-12-17T04:48:55;2.00;99.90
41557;DHT22;27720;51.992;5.890;2022-12-17T04:51:39;2.00;99.90
41557;DHT22;27720;51.992;5.890;2022-12-17T04:54:23;2.00;99.90
41557;DHT22;27720;51.992;5.890;2022-12-17T04:57:09;1.90;99.90
41557;DHT22;27720;51.992;5.890;2022-12-17T04:59:54;2.00;99.90
41557;DHT22;27720;51.992;5.890;2022-12-17T05:02:38;2.00;99.90
41557;DHT22;27720;51.992;5.890;2022-12-17T05:05:25;2.00;99.90
41557;DHT22;27720;51.992;5.890;2022-12-17T05:08:10;1.90;99.90
41557;DHT22;27720;51.992;5.890;2022-12-17T05:11:01;1.90;99.90
41557;DHT22;27720;51.992;5.890;2022-12-17T05:13:46;1.80;99.90
41557;DHT22;27720;51.992;5.890;2022-12-17T05:16:30;1.80;99.90
41557;DHT22;27720;51.992;5.890;2022-12-17T05:19:14;1.80;99.90
41557;DHT22;27720;51.992;5.890;2022-12-17T05:21:58;1.70;99.90
41557;DHT22;27720;51.992;5.890;2022-12-17T05:24:43;1.60;99.90
41557;DHT22;27720;51.992;5.890;2022-12-17T05:27:27;1.60;99.90
41557;DHT22;27720;51.992;5.890;2022-12-17T05:30:11;1.60;99.90
41557;DHT22;27720;51.992;5.890;2022-12-17T05:33:02;1.70;99.90
41557;DHT22;27720;51.992;5.890;2022-12-17T05:35:47;1.80;99.90
41557;DHT22;27720;51.992;5.890;2022-12-17T05:38:31;1.80;99.90
41557;DHT22;27720;51.992;5.890;2022-12-17T05:41:16;1.80;99.90
41557;DHT22;27720;51.992;5.890;2022-12-17T05:44:00;1.70;99.90
41557;DHT22;27720;51.992;5.890;2022-12-17T05:46:44;1.70;99.90
41557;DHT22;27720;51.992;5.890;2022-12-17T05:49:28;1.70;99.90
41557;DHT22;27720;51.992;5.890;2022-12-17T05:52:13;1.80;99.90
41557;DHT22;27720;51.992;5.890;2022-12-17T05:54:57;1.70;99.90
41557;DHT22;27720;51.992;5.890;2022-12-17T05:57:41;1.80;99.90
41557;DHT22;27720;51.992;5.890;2022-12-17T06:00:25;1.80;99.90
41557;DHT22;27720;51.992;5.890;2022-12-17T06:03:09;1.80;99.90
41557;DHT22;27720;51.992;5.890;2022-12-17T06:05:54;1.80;99.90
41557;DHT22;27720;51.992;5.890;2022-12-17T06:08:39;1.90;99.90
41557;DHT22;27720;51.992;5.890;2022-12-17T06:11:24;1.90;99.90
41557;DHT22;27720;51.992;5.890;2022-12-17T06:14:08;1.90;99.90
41557;DHT22;27720;51.992;5.890;2022-12-17T06:16:52;1.90;99.90
41557;DHT22;27720;51.992;5.890;2022-12-17T06:19:36;1.90;99.90
41557;DHT22;27720;51.992;5.890;2022-12-17T06:22:20;1.90;99.90
41557;DHT22;27720;51.992;5.890;2022-12-17T06:25:05;1.90;99.90
41557;DHT22;27720;51.992;5.890;2022-12-17T06:27:56;1.90;99.90
41557;DHT22;27720;51.992;5.890;2022-12-17T06:30:41;2.00;99.90
41557;DHT22;27720;51.992;5.890;2022-12-17T06:33:25;1.90;99.90
41557;DHT22;27720;51.992;5.890;2022-12-17T06:36:09;1.90;99.90
41557;DHT22;27720;51.992;5.890;2022-12-17T06:38:54;1.90;99.90
41557;DHT22;27720;51.992;5.890;2022-12-17T06:41:38;1.90;99.90
41557;DHT22;27720;51.992;5.890;2022-12-17T06:44:22;1.90;99.90
41557;DHT22;27720;51.992;5.890;2022-12-17T06:47:09;1.90;99.90
41557;DHT22;27720;51.992;5.890;2022-12-17T06:49:53;1.90;99.90
41557;DHT22;27720;51.992;5.890;2022-12-17T06:52:41;1.90;99.90
41557;DHT22;27720;51.992;5.890;2022-12-17T06:55:25;1.90;99.90
41557;DHT22;27720;51.992;5.890;2022-12-17T06:58:09;1.90;99.90
41557;DHT22;27720;51.992;5.890;2022-12-17T07:00:56;1.90;99.90
41557;DHT22;27720;51.992;5.890;2022-12-17T07:03:41;1.80;99.90
41557;DHT22;27720;51.992;5.890;2022-12-17T07:06:25;1.80;99.90
41557;DHT22;27720;51.992;5.890;2022-12-17T07:09:09;1.80;99.90
41557;DHT22;27720;51.992;5.890;2022-12-17T07:11:54;1.80;99.90
41557;DHT22;27720;51.992;5.890;2022-12-17T07:14:38;1.80;99.90
41557;DHT22;27720;51.992;5.890;2022-12-17T07:17:22;1.70;99.90
41557;DHT22;27720;51.992;5.890;2022-12-17T07:20:10;1.70;99.90
41557;DHT22;27720;51.992;5.890;2022-12-17T07:23:00;1.70;99.90
41557;DHT22;27720;51.992;5.890;2022-12-17T07:25:44;1.70;99.90
41557;DHT22;27720;51.992;5.890;2022-12-17T07:28:28;1.70;99.90
41557;DHT22;27720;51.992;5.890;2022-12-17T07:31:13;1.70;99.90
41557;DHT22;27720;51.992;5.890;2022-12-17T07:33:57;1.80;99.90
41557;DHT22;27720;51.992;5.890;2022-12-17T07:36:41;1.80;99.90
41557;DHT22;27720;51.992;5.890;2022-12-17T07:39:25;1.80;99.90
41557;DHT22;27720;51.992;5.890;2022-12-17T07:42:10;1.80;99.90
41557;DHT22;27720;51.992;5.890;2022-12-17T07:44:54;1.90;99.90
41557;DHT22;27720;51.992;5.890;2022-12-17T07:47:38;1.90;99.90
41557;DHT22;27720;51.992;5.890;2022-12-17T07:50:23;1.90;99.90
41557;DHT22;27720;51.992;5.890;2022-12-17T07:53:07;2.00;99.90
41557;DHT22;27720;51.992;5.890;2022-12-17T07:55:51;2.00;99.90
41557;DHT22;27720;51.992;5.890;2022-12-17T07:58:36;2.00;99.90
41557;DHT22;27720;51.992;5.890;2022-12-17T08:01:20;2.00;99.90
41557;DHT22;27720;51.992;5.890;2022-12-17T08:04:04;2.00;99.90
41557;DHT22;27720;51.992;5.890;2022-12-17T08:06:50;2.00;99.90
41557;DHT22;27720;51.992;5.890;2022-12-17T08:09:34;2.00;99.90
41557;DHT22;27720;51.992;5.890;2022-12-17T08:12:18;2.00;99.90
41557;DHT22;27720;51.992;5.890;2022-12-17T08:15:04;1.90;99.90
41557;DHT22;27720;51.992;5.890;2022-12-17T08:17:48;1.90;99.90
41557;DHT22;27720;51.992;5.890;2022-12-17T08:20:32;1.80;99.90
41557;DHT22;27720;51.992;5.890;2022-12-17T08:23:18;1.80;99.90
41557;DHT22;27720;51.992;5.890;2022-12-17T08:26:05;1.90;99.90
41557;DHT22;27720;51.992;5.890;2022-12-17T08:28:49;1.90;99.90
41557;DHT22;27720;51.992;5.890;2022-12-17T08:31:36;2.00;99.90
41557;DHT22;27720;51.992;5.890;2022-12-17T08:34:20;2.00;99.90
41557;DHT22;27720;51.992;5.890;2022-12-17T08:37:04;2.10;99.90
41557;DHT22;27720;51.992;5.890;2022-12-17T08:39:49;2.00;99.90
41557;DHT22;27720;51.992;5.890;2022-12-17T08:42:33;2.00;99.90
41557;DHT22;27720;51.992;5.890;2022-12-17T08:45:17;1.90;99.90
41557;DHT22;27720;51.992;5.890;2022-12-17T08:48:11;1.90;99.90
41557;DHT22;27720;51.992;5.890;2022-12-17T08:50:56;2.00;99.90
41557;DHT22;27720;51.992;5.890;2022-12-17T08:53:42;2.00;99.90
41557;DHT22;27720;51.992;5.890;2022-12-17T08:56:26;2.00;99.90
41557;DHT22;27720;51.992;5.890;2022-12-17T08:59:18;2.00;99.90
41557;DHT22;27720;51.992;5.890;2022-12-17T09:02:08;2.00;99.90
41557;DHT22;27720;51.992;5.890;2022-12-17T09:04:52;2.00;99.90
41557;DHT22;27720;51.992;5.890;2022-12-17T09:07:46;2.00;99.90
41557;DHT22;27720;51.992;5.890;2022-12-17T09:10:30;2.00;99.90
41557;DHT22;27720;51.992;5.890;2022-12-17T09:13:14;2.00;99.90
41557;DHT22;27720;51.992;5.890;2022-12-17T09:15:58;2.00;99.90
41557;DHT22;27720;51.992;5.890;2022-12-17T09:18:42;1.90;99.90
41557;DHT22;27720;51.992;5.890;2022-12-17T09:21:28;1.90;99.90
41557;DHT22;27720;51.992;5.890;2022-12-17T09:24:12;1.90;99.90
41557;DHT22;27720;51.992;5.890;2022-12-17T09:26:57;1.90;99.90
41557;DHT22;27720;51.992;5.890;2022-12-17T09:29:41;1.90;99.90
41557;DHT22;27720;51.992;5.890;2022-12-17T09:32:25;1.90;99.90
41557;DHT22;27720;51.992;5.890;2022-12-17T09:35:09;2.00;99.90
41557;DHT22;27720;51.992;5.890;2022-12-17T09:37:54;2.00;99.90
41557;DHT22;27720;51.992;5.890;2022-12-17T09:40:40;2.00;99.90
41557;DHT22;27720;51.992;5.890;2022-12-17T09:44:22;2.00;99.90
41557;DHT22;27720;51.992;5.890;2022-12-17T09:47:09;2.00;99.90
41557;DHT22;27720;51.992;5.890;2022-12-17T09:49:59;2.00;99.90
41557;DHT22;27720;51.992;5.890;2022-12-17T09:52:44;2.00;99.90
41557;DHT22;27720;51.992;5.890;2022-12-17T09:55:38;1.90;99.90
41557;DHT22;27720;51.992;5.890;2022-12-17T09:58:25;1.90;99.90
41557;DHT22;27720;51.992;5.890;2022-12-17T10:01:23;1.90;99.90
41557;DHT22;27720;51.992;5.890;2022-12-17T10:04:17;2.00;99.90
41557;DHT22;27720;51.992;5.890;2022-12-17T10:07:10;2.00;99.90
41557;DHT22;27720;51.992;5.890;2022-12-17T10:09:57;2.00;99.90
41557;DHT22;27720;51.992;5.890;2022-12-17T10:12:43;2.00;99.90
41557;DHT22;27720;51.992;5.890;2022-12-17T10:15:30;2.00;99.90
41557;DHT22;27720;51.992;5.890;2022-12-17T10:18:18;1.90;99.90
41557;DHT22;27720;51.992;5.890;2022-12-17T10:21:08;1.90;99.90
41557;DHT22;27720;51.992;5.890;2022-12-17T10:24:07;1.90;99.90
41557;DHT22;27720;51.992;5.890;2022-12-17T10:26:55;1.90;99.90
41557;DHT22;27720;51.992;5.890;2022-12-17T10:29:41;1.90;99.90
41557;DHT22;27720;51.992;5.890;2022-12-17T10:32:27;1.90;99.90
41557;DHT22;27720;51.992;5.890;2022-12-17T10:35:35;1.90;99.90
41557;DHT22;27720;51.992;5.890;2022-12-17T10:38:22;2.00;99.90
41557;DHT22;27720;51.992;5.890;2022-12-17T10:41:33;2.00;99.90
41557;DHT22;27720;51.992;5.890;2022-12-17T10:44:34;2.00;99.90
41557;DHT22;27720;51.992;5.890;2022-12-17T10:47:23;2.00;99.90
41557;DHT22;27720;51.992;5.890;2022-12-17T10:52:58;2.10;99.90
41557;DHT22;27720;51.992;5.890;2022-12-17T10:55:48;2.10;99.90
41557;DHT22;27720;51.992;5.890;2022-12-17T10:58:33;2.10;99.90
41557;DHT22;27720;51.992;5.890;2022-12-17T11:01:23;2.10;99.90
41557;DHT22;27720;51.992;5.890;2022-12-17T11:04:37;2.10;99.90
41557;DHT22;27720;51.992;5.890;2022-12-17T11:07:26;2.10;99.90
41557;DHT22;27720;51.992;5.890;2022-12-17T11:10:19;2.00;99.90
41557;DHT22;27720;51.992;5.890;2022-12-17T11:13:10;2.00;99.90
41557;DHT22;27720;51.992;5.890;2022-12-17T11:15:57;2.00;99.90
41557;DHT22;27720;51.992;5.890;2022-12-17T11:22:03;2.10;99.90
41557;DHT22;27720;51.992;5.890;2022-12-17T11:24:52;2.10;99.90
41557;DHT22;27720;51.992;5.890;2022-12-17T11:27:44;2.10;99.90
41557;DHT22;27720;51.992;5.890;2022-12-17T11:30:32;2.10;99.90
41557;DHT22;27720;51.992;5.890;2022-12-17T11:33:31;2.10;99.90
41557;DHT22;27720;51.992;5.890;2022-12-17T11:36:54;2.10;99.90
41557;DHT22;27720;51.992;5.890;2022-12-17T11:39:52;2.20;99.90
41557;DHT22;27720;51.992;5.890;2022-12-17T11:42:45;2.10;99.90
41557;DHT22;27720;51.992;5.890;2022-12-17T11:45:37;2.10;99.90
41557;DHT22;27720;51.992;5.890;2022-12-17T11:48:57;2.20;99.90
41557;DHT22;27720;51.992;5.890;2022-12-17T11:51:46;2.20;99.90
41557;DHT22;27720;51.992;5.890;2022-12-17T11:55:04;2.20;99.90
41557;DHT22;27720;51.992;5.890;2022-12-17T11:58:03;2.20;99.90
41557;DHT22;27720;51.992;5.890;2022-12-17T12:01:14;2.20;99.90
41557;DHT22;27720;51.992;5.890;2022-12-17T12:04:11;2.30;99.90
41557;DHT22;27720;51.992;5.890;2022-12-17T12:07:15;2.10;99.90
41557;DHT22;27720;51.992;5.890;2022-12-17T12:10:24;2.10;99.90
41557;DHT22;27720;51.992;5.890;2022-12-17T12:13:28;2.10;99.90
41557;DHT22;27720;51.992;5.890;2022-12-17T12:16:27;2.10;99.90
41557;DHT22;27720;51.992;5.890;2022-12-17T12:22:35;2.30;99.90
41557;DHT22;27720;51.992;5.890;2022-12-17T12:25:44;2.30;99.90
41557;DHT22;27720;51.992;5.890;2022-12-17T12:28:51;2.30;99.90
41557;DHT22;27720;51.992;5.890;2022-12-17T12:31:52;2.30;99.90
41557;DHT22;27720;51.992;5.890;2022-12-17T12:34:41;2.30;99.90
41557;DHT22;27720;51.992;5.890;2022-12-17T12:37:28;2.30;99.90
41557;DHT22;27720;51.992;5.890;2022-12-17T12:40:29;2.20;99.90
41557;DHT22;27720;51.992;5.890;2022-12-17T12:43:36;2.20;99.90
41557;DHT22;27720;51.992;5.890;2022-12-17T12:46:28;2.20;99.90
41557;DHT22;27720;51.992;5.890;2022-12-17T12:49:48;2.10;99.90
41557;DHT22;27720;51.992;5.890;2022-12-17T12:52:36;2.20;99.90
41557;DHT22;27720;51.992;5.890;2022-12-17T12:55:20;2.00;99.90
41557;DHT22;27720;51.992;5.890;2022-12-17T12:58:23;2.10;99.90
41557;DHT22;27720;51.992;5.890;2022-12-17T13:01:08;2.20;99.90
41557;DHT22;27720;51.992;5.890;2022-12-17T13:03:54;2.20;99.90
41557;DHT22;27720;51.992;5.890;2022-12-17T13:11:43;2.20;99.90
41557;DHT22;27720;51.992;5.890;2022-12-17T13:14:23;2.20;99.90
41557;DHT22;27720;51.992;5.890;2022-12-17T13:16:55;2.30;99.90
41557;DHT22;27720;51.992;5.890;2022-12-17T13:19:37;2.30;99.90
41557;DHT22;27720;51.992;5.890;2022-12-17T13:24:39;2.20;99.90
41557;DHT22;27720;51.992;5.890;2022-12-17T13:29:53;2.20;99.90
41557;DHT22;27720;51.992;5.890;2022-12-17T13:32:24;2.20;99.90
41557;DHT22;27720;51.992;5.890;2022-12-17T13:42:50;2.20;99.90
41557;DHT22;27720;51.992;5.890;2022-12-17T13:45:20;2.00;99.90
41557;DHT22;27720;51.992;5.890;2022-12-17T13:47:57;2.00;99.90
41557;DHT22;27720;51.992;5.890;2022-12-17T13:50:28;2.10;99.90
41557;DHT22;27720;51.992;5.890;2022-12-17T13:52:54;2.00;99.90
41557;DHT22;27720;51.992;5.890;2022-12-17T13:55:26;2.10;99.90
41557;DHT22;27720;51.992;5.890;2022-12-17T13:57:54;2.20;99.90
41557;DHT22;27720;51.992;5.890;2022-12-17T14:00:26;2.20;99.90
41557;DHT22;27720;51.992;5.890;2022-12-17T14:02:53;2.20;99.90
41557;DHT22;27720;51.992;5.890;2022-12-17T14:05:29;2.20;99.90
41557;DHT22;27720;51.992;5.890;2022-12-17T14:08:00;2.20;99.90
41557;DHT22;27720;51.992;5.890;2022-12-17T14:10:27;2.20;99.90
41557;DHT22;27720;51.992;5.890;2022-12-17T14:13:07;2.20;99.90
41557;DHT22;27720;51.992;5.890;2022-12-17T14:15:35;2.10;99.90
41557;DHT22;27720;51.992;5.890;2022-12-17T14:18:01;2.00;99.90
41557;DHT22;27720;51.992;5.890;2022-12-17T14:20:33;2.10;99.90
41557;DHT22;27720;51.992;5.890;2022-12-17T14:23:10;2.10;99.90
41557;DHT22;27720;51.992;5.890;2022-12-17T14:25:39;2.10;99.90
41557;DHT22;27720;51.992;5.890;2022-12-17T14:28:31;2.00;99.90
41557;DHT22;27720;51.992;5.890;2022-12-17T14:31:14;2.00;99.90
41557;DHT22;27720;51.992;5.890;2022-12-17T14:33:43;1.90;99.90
41557;DHT22;27720;51.992;5.890;2022-12-17T14:36:19;1.80;99.90
41557;DHT22;27720;51.992;5.890;2022-12-17T14:39:00;1.70;99.90
41557;DHT22;27720;51.992;5.890;2022-12-17T14:41:35;1.70;99.90
41557;DHT22;27720;51.992;5.890;2022-12-17T14:44:26;1.80;99.90
41557;DHT22;27720;51.992;5.890;2022-12-17T14:47:10;1.80;99.90
41557;DHT22;27720;51.992;5.890;2022-12-17T14:49:57;1.90;99.90
41557;DHT22;27720;51.992;5.890;2022-12-17T14:52:44;1.80;99.90
41557;DHT22;27720;51.992;5.890;2022-12-17T14:58:25;1.70;99.90
41557;DHT22;27720;51.992;5.890;2022-12-17T15:01:04;1.70;99.90
41557;DHT22;27720;51.992;5.890;2022-12-17T15:03:33;1.80;99.90
41557;DHT22;27720;51.992;5.890;2022-12-17T15:06:03;1.80;99.90
41557;DHT22;27720;51.992;5.890;2022-12-17T15:08:43;1.70;99.90
41557;DHT22;27720;51.992;5.890;2022-12-17T15:11:12;1.60;99.90
41557;DHT22;27720;51.992;5.890;2022-12-17T15:13:38;1.70;99.90
41557;DHT22;27720;51.992;5.890;2022-12-17T15:16:04;1.60;99.90
41557;DHT22;27720;51.992;5.890;2022-12-17T15:18:33;1.60;99.90
41557;DHT22;27720;51.992;5.890;2022-12-17T15:21:01;1.60;99.90
41557;DHT22;27720;51.992;5.890;2022-12-17T15:23:27;1.60;99.90
41557;DHT22;27720;51.992;5.890;2022-12-17T15:25:55;1.60;99.90
41557;DHT22;27720;51.992;5.890;2022-12-17T15:28:22;1.60;99.90
41557;DHT22;27720;51.992;5.890;2022-12-17T15:30:49;1.70;99.90
41557;DHT22;27720;51.992;5.890;2022-12-17T15:33:17;1.70;99.90
41557;DHT22;27720;51.992;5.890;2022-12-17T15:35:43;1.70;99.90
41557;DHT22;27720;51.992;5.890;2022-12-17T15:38:10;1.70;99.90
